sensor_id;sensor_type;location;lat;lon;timestamp;P1;durP1;ratioP1;P2;durP2;ratioP2
13471;SDS011;6808;49.444;11.034;2023-05-23T00:00:23;1.63;;;1.53;;
13471;SDS011;6808;49.444;11.034;2023-05-23T00:02:48;1.57;;;1.47;;
13471;SDS011;6808;49.444;11.034;2023-05-23T00:05:14;1.90;;;1.80;;
13471;SDS011;6808;49.444;11.034;2023-05-23T00:07:41;1.57;;;1.43;;
13471;SDS011;6808;49.444;11.034;2023-05-23T00:10:08;1.60;;;1.50;;
13471;SDS011;6808;49.444;11.034;2023-05-23T00:12:34;2.40;;;1.00;;
13471;SDS011;6808;49.444;11.034;2023-05-23T00:15:01;1.87;;;1.27;;
13471;SDS011;6808;49.444;11.034;2023-05-23T00:17:27;1.50;;;1.40;;
13471;SDS011;6808;49.444;11.034;2023-05-23T00:19:53;2.03;;;1.70;;
13471;SDS011;6808;49.444;11.034;2023-05-23T00:22:20;1.53;;;1.43;;
13471;SDS011;6808;49.444;11.034;2023-05-23T00:24:45;1.30;;;1.20;;
13471;SDS011;6808;49.444;11.034;2023-05-23T00:27:11;2.07;;;1.87;;
13471;SDS011;6808;49.444;11.034;2023-05-23T00:29:37;2.70;;;2.03;;
13471;SDS011;6808;49.444;11.034;2023-05-23T00:32:02;1.37;;;1.27;;
13471;SDS011;6808;49.444;11.034;2023-05-23T00:34:28;2.00;;;1.80;;
13471;SDS011;6808;49.444;11.034;2023-05-23T00:36:54;1.70;;;1.60;;
13471;SDS011;6808;49.444;11.034;2023-05-23T00:39:19;1.90;;;1.70;;
13471;SDS011;6808;49.444;11.034;2023-05-23T00:41:48;2.20;;;1.83;;
13471;SDS011;6808;49.444;11.034;2023-05-23T00:44:14;1.87;;;1.40;;
13471;SDS011;6808;49.444;11.034;2023-05-23T00:46:40;3.33;;;1.87;;
13471;SDS011;6808;49.444;11.034;2023-05-23T00:49:09;1.73;;;1.37;;
13471;SDS011;6808;49.444;11.034;2023-05-23T00:51:36;1.80;;;1.63;;
13471;SDS011;6808;49.444;11.034;2023-05-23T00:54:03;1.83;;;1.47;;
13471;SDS011;6808;49.444;11.034;2023-05-23T00:56:29;2.07;;;1.87;;
13471;SDS011;6808;49.444;11.034;2023-05-23T00:58:55;3.77;;;1.60;;
13471;SDS011;6808;49.444;11.034;2023-05-23T01:01:20;1.43;;;1.33;;
13471;SDS011;6808;49.444;11.034;2023-05-23T01:03:46;1.60;;;1.43;;
13471;SDS011;6808;49.444;11.034;2023-05-23T01:06:12;1.47;;;1.37;;
13471;SDS011;6808;49.444;11.034;2023-05-23T01:08:38;2.83;;;1.70;;
13471;SDS011;6808;49.444;11.034;2023-05-23T01:11:08;2.03;;;1.57;;
13471;SDS011;6808;49.444;11.034;2023-05-23T01:14:04;1.70;;;1.60;;
13471;SDS011;6808;49.444;11.034;2023-05-23T01:21:56;1.80;;;1.67;;
13471;SDS011;6808;49.444;11.034;2023-05-23T01:24:35;2.67;;;1.70;;
13471;SDS011;6808;49.444;11.034;2023-05-23T01:30:03;1.67;;;1.57;;
13471;SDS011;6808;49.444;11.034;2023-05-23T01:32:31;2.00;;;1.47;;
13471;SDS011;6808;49.444;11.034;2023-05-23T01:34:57;1.70;;;1.60;;
13471;SDS011;6808;49.444;11.034;2023-05-23T01:37:24;2.10;;;1.30;;
13471;SDS011;6808;49.444;11.034;2023-05-23T01:39:50;1.30;;;1.20;;
13471;SDS011;6808;49.444;11.034;2023-05-23T01:42:15;2.07;;;1.70;;
13471;SDS011;6808;49.444;11.034;2023-05-23T01:44:41;2.03;;;1.50;;
13471;SDS011;6808;49.444;11.034;2023-05-23T01:47:08;1.93;;;1.73;;
13471;SDS011;6808;49.444;11.034;2023-05-23T01:49:34;2.90;;;1.37;;
13471;SDS011;6808;49.444;11.034;2023-05-23T01:52:01;1.73;;;1.57;;
13471;SDS011;6808;49.444;11.034;2023-05-23T01:54:28;1.40;;;1.30;;
13471;SDS011;6808;49.444;11.034;2023-05-23T01:56:57;2.03;;;1.90;;
13471;SDS011;6808;49.444;11.034;2023-05-23T01:59:24;1.77;;;1.67;;
13471;SDS011;6808;49.444;11.034;2023-05-23T02:01:50;2.10;;;2.00;;
13471;SDS011;6808;49.444;11.034;2023-05-23T02:04:15;1.23;;;1.23;;
13471;SDS011;6808;49.444;11.034;2023-05-23T02:06:41;2.00;;;1.80;;
13471;SDS011;6808;49.444;11.034;2023-05-23T02:09:07;1.67;;;1.57;;
13471;SDS011;6808;49.444;11.034;2023-05-23T02:11:32;2.37;;;1.70;;
13471;SDS011;6808;49.444;11.034;2023-05-23T02:13:59;1.47;;;1.20;;
13471;SDS011;6808;49.444;11.034;2023-05-23T02:16:25;1.57;;;1.47;;
13471;SDS011;6808;49.444;11.034;2023-05-23T02:18:50;1.33;;;1.23;;
13471;SDS011;6808;49.444;11.034;2023-05-23T02:21:23;1.60;;;1.50;;
13471;SDS011;6808;49.444;11.034;2023-05-23T02:23:49;1.93;;;1.60;;
13471;SDS011;6808;49.444;11.034;2023-05-23T02:26:15;1.50;;;1.40;;
13471;SDS011;6808;49.444;11.034;2023-05-23T02:28:40;1.60;;;1.50;;
13471;SDS011;6808;49.444;11.034;2023-05-23T02:31:06;4.10;;;2.20;;
13471;SDS011;6808;49.444;11.034;2023-05-23T02:33:31;1.67;;;1.57;;
13471;SDS011;6808;49.444;11.034;2023-05-23T02:35:57;1.97;;;1.77;;
13471;SDS011;6808;49.444;11.034;2023-05-23T02:38:22;2.13;;;1.93;;
13471;SDS011;6808;49.444;11.034;2023-05-23T02:40:48;1.47;;;1.37;;
13471;SDS011;6808;49.444;11.034;2023-05-23T02:43:15;3.40;;;1.93;;
13471;SDS011;6808;49.444;11.034;2023-05-23T02:45:41;1.53;;;1.40;;
13471;SDS011;6808;49.444;11.034;2023-05-23T02:48:06;1.80;;;1.40;;
13471;SDS011;6808;49.444;11.034;2023-05-23T02:50:32;2.67;;;1.83;;
13471;SDS011;6808;49.444;11.034;2023-05-23T02:52:57;1.43;;;1.33;;
13471;SDS011;6808;49.444;11.034;2023-05-23T02:55:23;1.73;;;1.63;;
13471;SDS011;6808;49.444;11.034;2023-05-23T02:57:48;1.40;;;1.30;;
13471;SDS011;6808;49.444;11.034;2023-05-23T03:00:15;1.63;;;1.53;;
13471;SDS011;6808;49.444;11.034;2023-05-23T03:02:41;1.40;;;1.30;;
13471;SDS011;6808;49.444;11.034;2023-05-23T03:05:06;0.93;;;0.90;;
13471;SDS011;6808;49.444;11.034;2023-05-23T03:07:32;2.27;;;1.97;;
13471;SDS011;6808;49.444;11.034;2023-05-23T03:09:58;2.30;;;1.70;;
13471;SDS011;6808;49.444;11.034;2023-05-23T03:12:25;2.57;;;1.53;;
13471;SDS011;6808;49.444;11.034;2023-05-23T03:14:54;1.77;;;1.50;;
13471;SDS011;6808;49.444;11.034;2023-05-23T03:17:19;1.57;;;1.43;;
13471;SDS011;6808;49.444;11.034;2023-05-23T03:19:45;1.63;;;1.53;;
13471;SDS011;6808;49.444;11.034;2023-05-23T03:22:10;1.40;;;1.30;;
13471;SDS011;6808;49.444;11.034;2023-05-23T03:24:36;2.00;;;1.80;;
13471;SDS011;6808;49.444;11.034;2023-05-23T03:27:01;1.77;;;1.67;;
13471;SDS011;6808;49.444;11.034;2023-05-23T03:29:28;2.00;;;1.87;;
13471;SDS011;6808;49.444;11.034;2023-05-23T03:31:53;1.77;;;1.37;;
13471;SDS011;6808;49.444;11.034;2023-05-23T03:34:19;1.83;;;1.63;;
13471;SDS011;6808;49.444;11.034;2023-05-23T03:36:44;2.17;;;1.47;;
13471;SDS011;6808;49.444;11.034;2023-05-23T03:39:10;2.17;;;1.97;;
13471;SDS011;6808;49.444;11.034;2023-05-23T03:41:36;1.97;;;1.87;;
13471;SDS011;6808;49.444;11.034;2023-05-23T03:44:01;1.80;;;1.70;;
13471;SDS011;6808;49.444;11.034;2023-05-23T03:46:27;2.30;;;2.10;;
13471;SDS011;6808;49.444;11.034;2023-05-23T03:48:52;1.50;;;1.40;;
13471;SDS011;6808;49.444;11.034;2023-05-23T03:51:18;1.97;;;1.77;;
13471;SDS011;6808;49.444;11.034;2023-05-23T03:53:44;1.63;;;1.47;;
13471;SDS011;6808;49.444;11.034;2023-05-23T03:56:09;1.67;;;1.57;;
13471;SDS011;6808;49.444;11.034;2023-05-23T03:58:35;2.10;;;1.80;;
13471;SDS011;6808;49.444;11.034;2023-05-23T04:01:00;1.17;;;1.07;;
13471;SDS011;6808;49.444;11.034;2023-05-23T04:03:26;5.30;;;1.73;;
13471;SDS011;6808;49.444;11.034;2023-05-23T04:05:56;2.03;;;1.40;;
13471;SDS011;6808;49.444;11.034;2023-05-23T04:08:25;1.63;;;1.47;;
13471;SDS011;6808;49.444;11.034;2023-05-23T04:10:51;2.03;;;1.87;;
13471;SDS011;6808;49.444;11.034;2023-05-23T04:13:17;1.70;;;1.50;;
13471;SDS011;6808;49.444;11.034;2023-05-23T04:15:43;1.40;;;1.30;;
13471;SDS011;6808;49.444;11.034;2023-05-23T04:18:09;1.87;;;1.77;;
13471;SDS011;6808;49.444;11.034;2023-05-23T04:20:35;2.20;;;1.77;;
13471;SDS011;6808;49.444;11.034;2023-05-23T04:23:01;2.23;;;2.00;;
13471;SDS011;6808;49.444;11.034;2023-05-23T04:25:26;1.97;;;1.87;;
13471;SDS011;6808;49.444;11.034;2023-05-23T04:27:52;1.73;;;1.60;;
13471;SDS011;6808;49.444;11.034;2023-05-23T04:30:19;3.40;;;3.10;;
13471;SDS011;6808;49.444;11.034;2023-05-23T04:32:46;5.27;;;4.50;;
13471;SDS011;6808;49.444;11.034;2023-05-23T04:35:12;6.97;;;5.50;;
13471;SDS011;6808;49.444;11.034;2023-05-23T04:37:37;16.63;;;10.47;;
13471;SDS011;6808;49.444;11.034;2023-05-23T04:40:04;8.70;;;6.37;;
13471;SDS011;6808;49.444;11.034;2023-05-23T04:42:32;2.57;;;2.20;;
13471;SDS011;6808;49.444;11.034;2023-05-23T04:44:58;3.70;;;2.30;;
13471;SDS011;6808;49.444;11.034;2023-05-23T04:47:26;3.00;;;1.60;;
13471;SDS011;6808;49.444;11.034;2023-05-23T04:49:52;2.07;;;1.80;;
13471;SDS011;6808;49.444;11.034;2023-05-23T04:52:19;1.97;;;1.47;;
13471;SDS011;6808;49.444;11.034;2023-05-23T04:54:44;1.93;;;1.40;;
13471;SDS011;6808;49.444;11.034;2023-05-23T04:57:12;1.87;;;1.73;;
13471;SDS011;6808;49.444;11.034;2023-05-23T04:59:38;2.00;;;1.70;;
13471;SDS011;6808;49.444;11.034;2023-05-23T05:02:04;1.60;;;1.50;;
13471;SDS011;6808;49.444;11.034;2023-05-23T05:04:30;3.33;;;1.90;;
13471;SDS011;6808;49.444;11.034;2023-05-23T05:06:56;2.53;;;1.93;;
13471;SDS011;6808;49.444;11.034;2023-05-23T05:09:21;1.40;;;1.30;;
13471;SDS011;6808;49.444;11.034;2023-05-23T05:11:47;2.73;;;2.33;;
13471;SDS011;6808;49.444;11.034;2023-05-23T05:14:13;1.43;;;1.33;;
13471;SDS011;6808;49.444;11.034;2023-05-23T05:16:38;2.00;;;1.80;;
13471;SDS011;6808;49.444;11.034;2023-05-23T05:19:04;1.97;;;1.87;;
13471;SDS011;6808;49.444;11.034;2023-05-23T05:21:30;2.10;;;1.90;;
13471;SDS011;6808;49.444;11.034;2023-05-23T05:23:55;3.53;;;1.47;;
13471;SDS011;6808;49.444;11.034;2023-05-23T05:26:21;1.17;;;1.10;;
13471;SDS011;6808;49.444;11.034;2023-05-23T05:28:47;1.87;;;1.77;;
13471;SDS011;6808;49.444;11.034;2023-05-23T05:31:13;2.13;;;1.97;;
13471;SDS011;6808;49.444;11.034;2023-05-23T05:33:39;2.50;;;1.73;;
13471;SDS011;6808;49.444;11.034;2023-05-23T05:36:05;1.83;;;1.57;;
13471;SDS011;6808;49.444;11.034;2023-05-23T05:38:32;1.50;;;1.40;;
13471;SDS011;6808;49.444;11.034;2023-05-23T05:40:57;2.33;;;1.80;;
13471;SDS011;6808;49.444;11.034;2023-05-23T05:43:24;3.47;;;1.97;;
13471;SDS011;6808;49.444;11.034;2023-05-23T05:45:50;2.13;;;1.93;;
13471;SDS011;6808;49.444;11.034;2023-05-23T05:48:15;1.70;;;1.60;;
13471;SDS011;6808;49.444;11.034;2023-05-23T05:50:41;2.23;;;2.03;;
13471;SDS011;6808;49.444;11.034;2023-05-23T05:53:09;1.57;;;1.40;;
13471;SDS011;6808;49.444;11.034;2023-05-23T05:55:36;3.10;;;1.77;;
13471;SDS011;6808;49.444;11.034;2023-05-23T05:58:02;1.43;;;1.33;;
13471;SDS011;6808;49.444;11.034;2023-05-23T06:00:28;1.57;;;1.47;;
13471;SDS011;6808;49.444;11.034;2023-05-23T06:02:54;1.37;;;1.30;;
13471;SDS011;6808;49.444;11.034;2023-05-23T06:05:21;2.23;;;2.00;;
13471;SDS011;6808;49.444;11.034;2023-05-23T06:07:47;2.40;;;1.47;;
13471;SDS011;6808;49.444;11.034;2023-05-23T06:10:14;2.37;;;1.60;;
13471;SDS011;6808;49.444;11.034;2023-05-23T06:12:40;1.80;;;1.57;;
13471;SDS011;6808;49.444;11.034;2023-05-23T06:15:06;1.60;;;1.50;;
13471;SDS011;6808;49.444;11.034;2023-05-23T06:17:32;1.13;;;1.07;;
13471;SDS011;6808;49.444;11.034;2023-05-23T06:19:57;1.63;;;1.53;;
13471;SDS011;6808;49.444;11.034;2023-05-23T06:22:23;2.20;;;1.40;;
13471;SDS011;6808;49.444;11.034;2023-05-23T06:24:48;2.83;;;1.27;;
13471;SDS011;6808;49.444;11.034;2023-05-23T06:27:14;2.43;;;1.87;;
13471;SDS011;6808;49.444;11.034;2023-05-23T06:29:39;1.70;;;1.60;;
13471;SDS011;6808;49.444;11.034;2023-05-23T06:32:05;1.30;;;1.20;;
13471;SDS011;6808;49.444;11.034;2023-05-23T06:34:31;1.80;;;1.70;;
13471;SDS011;6808;49.444;11.034;2023-05-23T06:36:56;2.33;;;1.50;;
13471;SDS011;6808;49.444;11.034;2023-05-23T06:39:22;2.20;;;2.03;;
13471;SDS011;6808;49.444;11.034;2023-05-23T06:41:47;1.30;;;1.20;;
13471;SDS011;6808;49.444;11.034;2023-05-23T06:44:13;3.13;;;2.13;;
13471;SDS011;6808;49.444;11.034;2023-05-23T06:46:42;1.47;;;1.37;;
13471;SDS011;6808;49.444;11.034;2023-05-23T06:49:09;2.20;;;1.67;;
13471;SDS011;6808;49.444;11.034;2023-05-23T06:51:34;1.70;;;1.60;;
13471;SDS011;6808;49.444;11.034;2023-05-23T06:54:00;2.47;;;2.03;;
13471;SDS011;6808;49.444;11.034;2023-05-23T06:56:26;1.67;;;1.50;;
13471;SDS011;6808;49.444;11.034;2023-05-23T06:58:51;1.40;;;1.30;;
13471;SDS011;6808;49.444;11.034;2023-05-23T07:01:17;1.50;;;1.40;;
13471;SDS011;6808;49.444;11.034;2023-05-23T07:03:42;2.07;;;1.63;;
13471;SDS011;6808;49.444;11.034;2023-05-23T07:06:09;2.07;;;1.87;;
13471;SDS011;6808;49.444;11.034;2023-05-23T07:08:35;2.90;;;1.60;;
13471;SDS011;6808;49.444;11.034;2023-05-23T07:11:00;1.60;;;1.50;;
13471;SDS011;6808;49.444;11.034;2023-05-23T07:13:26;2.97;;;1.93;;
13471;SDS011;6808;49.444;11.034;2023-05-23T07:15:51;1.30;;;1.20;;
13471;SDS011;6808;49.444;11.034;2023-05-23T07:18:17;1.20;;;1.13;;
13471;SDS011;6808;49.444;11.034;2023-05-23T07:20:42;1.93;;;1.73;;
13471;SDS011;6808;49.444;11.034;2023-05-23T07:23:08;1.97;;;1.70;;
13471;SDS011;6808;49.444;11.034;2023-05-23T07:25:33;1.70;;;1.60;;
13471;SDS011;6808;49.444;11.034;2023-05-23T07:27:59;1.50;;;1.40;;
13471;SDS011;6808;49.444;11.034;2023-05-23T07:30:24;1.90;;;1.30;;
13471;SDS011;6808;49.444;11.034;2023-05-23T07:32:50;2.27;;;1.97;;
13471;SDS011;6808;49.444;11.034;2023-05-23T07:35:16;1.97;;;1.80;;
13471;SDS011;6808;49.444;11.034;2023-05-23T07:37:43;2.00;;;1.73;;
13471;SDS011;6808;49.444;11.034;2023-05-23T07:40:08;1.53;;;1.43;;
13471;SDS011;6808;49.444;11.034;2023-05-23T07:42:34;3.97;;;2.23;;
13471;SDS011;6808;49.444;11.034;2023-05-23T07:45:00;3.17;;;1.70;;
13471;SDS011;6808;49.444;11.034;2023-05-23T07:47:26;2.57;;;1.63;;
13471;SDS011;6808;49.444;11.034;2023-05-23T07:49:51;1.93;;;1.50;;
13471;SDS011;6808;49.444;11.034;2023-05-23T07:52:17;1.93;;;1.53;;
13471;SDS011;6808;49.444;11.034;2023-05-23T07:54:43;1.70;;;1.60;;
13471;SDS011;6808;49.444;11.034;2023-05-23T07:57:09;2.70;;;1.33;;
13471;SDS011;6808;49.444;11.034;2023-05-23T07:59:34;1.87;;;1.77;;
13471;SDS011;6808;49.444;11.034;2023-05-23T08:02:00;2.70;;;1.67;;
13471;SDS011;6808;49.444;11.034;2023-05-23T08:04:27;1.80;;;1.70;;
13471;SDS011;6808;49.444;11.034;2023-05-23T08:06:53;1.80;;;1.67;;
13471;SDS011;6808;49.444;11.034;2023-05-23T08:09:19;2.07;;;1.80;;
13471;SDS011;6808;49.444;11.034;2023-05-23T08:11:45;3.83;;;1.63;;
13471;SDS011;6808;49.444;11.034;2023-05-23T08:14:11;1.50;;;1.40;;
13471;SDS011;6808;49.444;11.034;2023-05-23T08:16:36;1.37;;;1.27;;
13471;SDS011;6808;49.444;11.034;2023-05-23T08:19:02;2.60;;;1.20;;
13471;SDS011;6808;49.444;11.034;2023-05-23T08:21:28;3.00;;;1.43;;
13471;SDS011;6808;49.444;11.034;2023-05-23T08:23:53;1.63;;;1.53;;
13471;SDS011;6808;49.444;11.034;2023-05-23T08:26:19;1.40;;;1.30;;
13471;SDS011;6808;49.444;11.034;2023-05-23T08:28:45;1.53;;;1.43;;
13471;SDS011;6808;49.444;11.034;2023-05-23T08:31:10;1.70;;;1.60;;
13471;SDS011;6808;49.444;11.034;2023-05-23T08:33:36;1.77;;;1.60;;
13471;SDS011;6808;49.444;11.034;2023-05-23T08:36:02;1.60;;;1.50;;
13471;SDS011;6808;49.444;11.034;2023-05-23T08:38:27;2.27;;;1.60;;
13471;SDS011;6808;49.444;11.034;2023-05-23T08:40:53;1.67;;;1.40;;
13471;SDS011;6808;49.444;11.034;2023-05-23T08:43:20;2.70;;;1.77;;
13471;SDS011;6808;49.444;11.034;2023-05-23T08:45:46;1.13;;;1.03;;
13471;SDS011;6808;49.444;11.034;2023-05-23T08:48:15;1.23;;;1.00;;
13471;SDS011;6808;49.444;11.034;2023-05-23T08:50:44;1.37;;;1.27;;
13471;SDS011;6808;49.444;11.034;2023-05-23T08:53:14;1.53;;;1.43;;
13471;SDS011;6808;49.444;11.034;2023-05-23T08:55:44;1.30;;;1.20;;
13471;SDS011;6808;49.444;11.034;2023-05-23T08:58:15;1.50;;;1.40;;
13471;SDS011;6808;49.444;11.034;2023-05-23T09:00:43;1.50;;;1.40;;
13471;SDS011;6808;49.444;11.034;2023-05-23T09:03:10;1.73;;;1.23;;
13471;SDS011;6808;49.444;11.034;2023-05-23T09:05:36;2.07;;;1.87;;
13471;SDS011;6808;49.444;11.034;2023-05-23T09:08:02;1.63;;;1.53;;
13471;SDS011;6808;49.444;11.034;2023-05-23T09:10:28;1.20;;;1.10;;
13471;SDS011;6808;49.444;11.034;2023-05-23T09:12:53;1.23;;;1.13;;
13471;SDS011;6808;49.444;11.034;2023-05-23T09:15:19;1.50;;;1.40;;
13471;SDS011;6808;49.444;11.034;2023-05-23T09:17:46;1.33;;;1.20;;
13471;SDS011;6808;49.444;11.034;2023-05-23T09:20:12;2.07;;;1.70;;
13471;SDS011;6808;49.444;11.034;2023-05-23T09:22:39;1.80;;;1.50;;
13471;SDS011;6808;49.444;11.034;2023-05-23T09:25:06;3.30;;;2.00;;
13471;SDS011;6808;49.444;11.034;2023-05-23T09:27:32;1.50;;;1.40;;
13471;SDS011;6808;49.444;11.034;2023-05-23T09:30:03;1.00;;;0.97;;
13471;SDS011;6808;49.444;11.034;2023-05-23T09:32:30;1.57;;;1.47;;
13471;SDS011;6808;49.444;11.034;2023-05-23T09:39:57;1.30;;;1.20;;
13471;SDS011;6808;49.444;11.034;2023-05-23T09:42:24;2.23;;;1.20;;
13471;SDS011;6808;49.444;11.034;2023-05-23T09:44:49;1.33;;;1.20;;
13471;SDS011;6808;49.444;11.034;2023-05-23T09:47:15;1.97;;;1.37;;
13471;SDS011;6808;49.444;11.034;2023-05-23T09:49:45;1.70;;;1.60;;
13471;SDS011;6808;49.444;11.034;2023-05-23T09:52:11;1.40;;;1.30;;
13471;SDS011;6808;49.444;11.034;2023-05-23T09:54:37;1.50;;;1.40;;
13471;SDS011;6808;49.444;11.034;2023-05-23T09:57:03;2.00;;;1.13;;
13471;SDS011;6808;49.444;11.034;2023-05-23T09:59:34;1.60;;;1.50;;
13471;SDS011;6808;49.444;11.034;2023-05-23T10:02:10;1.67;;;1.50;;
13471;SDS011;6808;49.444;11.034;2023-05-23T10:04:36;1.17;;;1.07;;
13471;SDS011;6808;49.444;11.034;2023-05-23T10:07:04;1.40;;;1.30;;
13471;SDS011;6808;49.444;11.034;2023-05-23T10:09:38;1.13;;;1.07;;
13471;SDS011;6808;49.444;11.034;2023-05-23T10:15:02;0.87;;;0.87;;
13471;SDS011;6808;49.444;11.034;2023-05-23T10:20:04;1.37;;;1.27;;
13471;SDS011;6808;49.444;11.034;2023-05-23T10:22:36;1.10;;;1.00;;
13471;SDS011;6808;49.444;11.034;2023-05-23T10:25:03;1.20;;;1.10;;
13471;SDS011;6808;49.444;11.034;2023-05-23T10:27:29;1.20;;;1.10;;
13471;SDS011;6808;49.444;11.034;2023-05-23T10:29:56;1.07;;;1.07;;
13471;SDS011;6808;49.444;11.034;2023-05-23T10:32:23;1.07;;;0.90;;
13471;SDS011;6808;49.444;11.034;2023-05-23T10:35:06;2.03;;;1.50;;
13471;SDS011;6808;49.444;11.034;2023-05-23T10:37:44;1.00;;;0.90;;
13471;SDS011;6808;49.444;11.034;2023-05-23T10:43:30;1.30;;;1.20;;
13471;SDS011;6808;49.444;11.034;2023-05-23T10:46:14;1.30;;;1.20;;
13471;SDS011;6808;49.444;11.034;2023-05-23T10:48:40;1.60;;;1.37;;
13471;SDS011;6808;49.444;11.034;2023-05-23T10:51:07;1.20;;;1.10;;
13471;SDS011;6808;49.444;11.034;2023-05-23T10:53:34;0.97;;;0.93;;
13471;SDS011;6808;49.444;11.034;2023-05-23T10:56:06;1.43;;;1.10;;
13471;SDS011;6808;49.444;11.034;2023-05-23T10:58:37;1.00;;;1.00;;
13471;SDS011;6808;49.444;11.034;2023-05-23T11:01:06;1.23;;;1.13;;
13471;SDS011;6808;49.444;11.034;2023-05-23T11:06:30;0.67;;;0.67;;
13471;SDS011;6808;49.444;11.034;2023-05-23T11:14:16;1.07;;;1.00;;
13471;SDS011;6808;49.444;11.034;2023-05-23T11:16:42;0.90;;;0.90;;
13471;SDS011;6808;49.444;11.034;2023-05-23T11:19:19;0.73;;;0.73;;
13471;SDS011;6808;49.444;11.034;2023-05-23T11:21:48;1.50;;;1.30;;
13471;SDS011;6808;49.444;11.034;2023-05-23T11:24:14;0.93;;;0.93;;
13471;SDS011;6808;49.444;11.034;2023-05-23T11:26:50;0.73;;;0.73;;
13471;SDS011;6808;49.444;11.034;2023-05-23T11:29:18;0.87;;;0.87;;
13471;SDS011;6808;49.444;11.034;2023-05-23T11:31:44;1.10;;;1.00;;
13471;SDS011;6808;49.444;11.034;2023-05-23T11:34:09;0.70;;;0.70;;
13471;SDS011;6808;49.444;11.034;2023-05-23T11:36:36;1.03;;;0.93;;
13471;SDS011;6808;49.444;11.034;2023-05-23T11:39:02;0.90;;;0.90;;
13471;SDS011;6808;49.444;11.034;2023-05-23T11:41:31;0.70;;;0.70;;
13471;SDS011;6808;49.444;11.034;2023-05-23T11:43:59;0.63;;;0.63;;
13471;SDS011;6808;49.444;11.034;2023-05-23T11:46:25;0.73;;;0.73;;
13471;SDS011;6808;49.444;11.034;2023-05-23T11:48:51;0.87;;;0.83;;
13471;SDS011;6808;49.444;11.034;2023-05-23T11:51:17;1.30;;;1.10;;
13471;SDS011;6808;49.444;11.034;2023-05-23T11:53:44;1.50;;;1.40;;
13471;SDS011;6808;49.444;11.034;2023-05-23T11:56:10;0.90;;;0.90;;
13471;SDS011;6808;49.444;11.034;2023-05-23T11:58:36;0.90;;;0.80;;
13471;SDS011;6808;49.444;11.034;2023-05-23T12:03:29;3.50;;;2.47;;
13471;SDS011;6808;49.444;11.034;2023-05-23T12:05:56;1.73;;;1.63;;
13471;SDS011;6808;49.444;11.034;2023-05-23T12:08:22;0.80;;;0.80;;
13471;SDS011;6808;49.444;11.034;2023-05-23T12:10:59;5.07;;;1.27;;
13471;SDS011;6808;49.444;11.034;2023-05-23T12:13:27;0.80;;;0.80;;
13471;SDS011;6808;49.444;11.034;2023-05-23T12:15:56;0.60;;;0.60;;
13471;SDS011;6808;49.444;11.034;2023-05-23T12:18:31;0.60;;;0.60;;
13471;SDS011;6808;49.444;11.034;2023-05-23T12:21:00;0.80;;;0.80;;
13471;SDS011;6808;49.444;11.034;2023-05-23T12:23:28;0.60;;;0.60;;
13471;SDS011;6808;49.444;11.034;2023-05-23T12:25:54;0.80;;;0.80;;
13471;SDS011;6808;49.444;11.034;2023-05-23T12:28:22;2.03;;;0.90;;
13471;SDS011;6808;49.444;11.034;2023-05-23T12:31:07;0.67;;;0.67;;
13471;SDS011;6808;49.444;11.034;2023-05-23T12:33:37;1.00;;;0.90;;
13471;SDS011;6808;49.444;11.034;2023-05-23T12:36:04;0.60;;;0.60;;
13471;SDS011;6808;49.444;11.034;2023-05-23T12:38:31;0.97;;;0.83;;
13471;SDS011;6808;49.444;11.034;2023-05-23T12:41:08;0.60;;;0.60;;
13471;SDS011;6808;49.444;11.034;2023-05-23T12:43:38;0.70;;;0.70;;
13471;SDS011;6808;49.444;11.034;2023-05-23T12:46:04;0.87;;;0.87;;
13471;SDS011;6808;49.444;11.034;2023-05-23T12:48:30;0.67;;;0.67;;
13471;SDS011;6808;49.444;11.034;2023-05-23T12:50:56;0.70;;;0.70;;
13471;SDS011;6808;49.444;11.034;2023-05-23T12:53:21;0.90;;;0.90;;
13471;SDS011;6808;49.444;11.034;2023-05-23T12:55:47;0.60;;;0.60;;
13471;SDS011;6808;49.444;11.034;2023-05-23T12:58:12;6.00;;;3.83;;
13471;SDS011;6808;49.444;11.034;2023-05-23T13:00:38;0.90;;;0.90;;
13471;SDS011;6808;49.444;11.034;2023-05-23T13:03:03;0.60;;;0.60;;
13471;SDS011;6808;49.444;11.034;2023-05-23T13:05:30;0.60;;;0.60;;
13471;SDS011;6808;49.444;11.034;2023-05-23T13:07:56;0.70;;;0.70;;
13471;SDS011;6808;49.444;11.034;2023-05-23T13:10:23;0.90;;;0.90;;
13471;SDS011;6808;49.444;11.034;2023-05-23T13:12:48;0.83;;;0.83;;
13471;SDS011;6808;49.444;11.034;2023-05-23T13:15:14;0.80;;;0.80;;
13471;SDS011;6808;49.444;11.034;2023-05-23T13:17:40;0.60;;;0.60;;
13471;SDS011;6808;49.444;11.034;2023-05-23T13:20:06;0.50;;;0.50;;
13471;SDS011;6808;49.444;11.034;2023-05-23T13:22:33;1.47;;;0.80;;
13471;SDS011;6808;49.444;11.034;2023-05-23T13:24:59;0.83;;;0.83;;
13471;SDS011;6808;49.444;11.034;2023-05-23T13:27:24;0.50;;;0.50;;
13471;SDS011;6808;49.444;11.034;2023-05-23T13:29:50;0.70;;;0.70;;
13471;SDS011;6808;49.444;11.034;2023-05-23T13:32:16;0.90;;;0.90;;
13471;SDS011;6808;49.444;11.034;2023-05-23T13:34:42;0.80;;;0.80;;
13471;SDS011;6808;49.444;11.034;2023-05-23T13:37:08;0.97;;;0.70;;
13471;SDS011;6808;49.444;11.034;2023-05-23T13:39:33;0.90;;;0.90;;
13471;SDS011;6808;49.444;11.034;2023-05-23T13:41:59;0.70;;;0.70;;
13471;SDS011;6808;49.444;11.034;2023-05-23T13:44:25;0.97;;;0.90;;
13471;SDS011;6808;49.444;11.034;2023-05-23T13:46:50;0.67;;;0.67;;
13471;SDS011;6808;49.444;11.034;2023-05-23T13:49:16;0.67;;;0.67;;
13471;SDS011;6808;49.444;11.034;2023-05-23T13:51:41;0.93;;;0.93;;
13471;SDS011;6808;49.444;11.034;2023-05-23T13:54:08;0.60;;;0.60;;
13471;SDS011;6808;49.444;11.034;2023-05-23T13:56:34;0.70;;;0.70;;
13471;SDS011;6808;49.444;11.034;2023-05-23T13:59:00;0.67;;;0.60;;
13471;SDS011;6808;49.444;11.034;2023-05-23T14:01:26;0.60;;;0.60;;
13471;SDS011;6808;49.444;11.034;2023-05-23T14:03:52;1.00;;;0.80;;
13471;SDS011;6808;49.444;11.034;2023-05-23T14:06:18;0.70;;;0.70;;
13471;SDS011;6808;49.444;11.034;2023-05-23T14:08:43;0.60;;;0.60;;
13471;SDS011;6808;49.444;11.034;2023-05-23T14:11:09;0.60;;;0.60;;
13471;SDS011;6808;49.444;11.034;2023-05-23T14:13:35;0.83;;;0.83;;
13471;SDS011;6808;49.444;11.034;2023-05-23T14:16:00;0.70;;;0.70;;
13471;SDS011;6808;49.444;11.034;2023-05-23T14:18:26;0.50;;;0.50;;
13471;SDS011;6808;49.444;11.034;2023-05-23T14:20:51;0.60;;;0.60;;
13471;SDS011;6808;49.444;11.034;2023-05-23T14:23:17;0.70;;;0.70;;
13471;SDS011;6808;49.444;11.034;2023-05-23T14:25:42;0.63;;;0.63;;
13471;SDS011;6808;49.444;11.034;2023-05-23T14:28:09;0.70;;;0.70;;
13471;SDS011;6808;49.444;11.034;2023-05-23T14:30:35;1.30;;;1.20;;
13471;SDS011;6808;49.444;11.034;2023-05-23T14:33:00;1.67;;;1.27;;
13471;SDS011;6808;49.444;11.034;2023-05-23T14:35:26;1.00;;;0.90;;
13471;SDS011;6808;49.444;11.034;2023-05-23T14:37:53;0.70;;;0.70;;
13471;SDS011;6808;49.444;11.034;2023-05-23T14:40:19;0.60;;;0.60;;
13471;SDS011;6808;49.444;11.034;2023-05-23T14:42:44;0.80;;;0.80;;
13471;SDS011;6808;49.444;11.034;2023-05-23T14:45:10;0.57;;;0.57;;
13471;SDS011;6808;49.444;11.034;2023-05-23T14:47:36;0.77;;;0.77;;
13471;SDS011;6808;49.444;11.034;2023-05-23T14:50:02;0.77;;;0.77;;
13471;SDS011;6808;49.444;11.034;2023-05-23T14:52:27;0.73;;;0.73;;
13471;SDS011;6808;49.444;11.034;2023-05-23T14:54:53;0.47;;;0.47;;
13471;SDS011;6808;49.444;11.034;2023-05-23T14:57:18;1.60;;;1.50;;
13471;SDS011;6808;49.444;11.034;2023-05-23T14:59:44;0.87;;;0.87;;
13471;SDS011;6808;49.444;11.034;2023-05-23T15:02:10;0.70;;;0.70;;
13471;SDS011;6808;49.444;11.034;2023-05-23T15:04:36;0.70;;;0.70;;
13471;SDS011;6808;49.444;11.034;2023-05-23T15:07:02;0.43;;;0.43;;
13471;SDS011;6808;49.444;11.034;2023-05-23T15:09:28;0.50;;;0.50;;
13471;SDS011;6808;49.444;11.034;2023-05-23T15:11:53;0.50;;;0.50;;
13471;SDS011;6808;49.444;11.034;2023-05-23T15:14:19;6.70;;;4.83;;
13471;SDS011;6808;49.444;11.034;2023-05-23T15:16:45;1.40;;;1.30;;